Columbus, Ohio
Traffic Map
Current Weather Conditions
Columbus, Ohio
Scattered Clouds
Scattered Clouds
15°
Feels Like: 15°
Wind Chill: 15° Ceiling: Unl
Heat Index: 15° Visibility: 10mi
Dew Point: 12° Wind: 7mph
Humidity: 83% Direction: 360° (N)
Pressure: 30.03in Gusts: 0mph
Raw Report DataKCMH 240951Z 36006KT 10SM FEW030 SCT140 15/12 A3003 RMK AO2 SLP164 T01500122
Traffic Incident Summary
Active as of:
Severity:
Category:
InformationThere was an issue retrieving the traffic information for this location. Please try a different location or try again shortly.
Advertisements
Track Severe Weather on mobile